sensor_id;sensor_type;location;lat;lon;timestamp;temperature;humidity
52044;DHT22;38053;53.100;6.078;2023-04-01T00:00:57;9.50;99.90
52044;DHT22;38053;53.100;6.078;2023-04-01T00:03:24;9.50;99.90
52044;DHT22;38053;53.100;6.078;2023-04-01T00:05:56;9.50;99.90
52044;DHT22;38053;53.100;6.078;2023-04-01T00:08:23;9.50;99.90
52044;DHT22;38053;53.100;6.078;2023-04-01T00:10:56;9.50;99.90
52044;DHT22;38053;53.100;6.078;2023-04-01T00:13:23;9.50;99.90
52044;DHT22;38053;53.100;6.078;2023-04-01T00:15:52;9.50;99.90
52044;DHT22;38053;53.100;6.078;2023-04-01T00:18:21;9.60;99.90
52044;DHT22;38053;53.100;6.078;2023-04-01T00:20:49;9.50;99.90
52044;DHT22;38053;53.100;6.078;2023-04-01T00:23:17;9.50;99.90
52044;DHT22;38053;53.100;6.078;2023-04-01T00:25:44;9.50;99.90
52044;DHT22;38053;53.100;6.078;2023-04-01T00:28:12;9.50;99.90
52044;DHT22;38053;53.100;6.078;2023-04-01T00:30:38;9.40;99.90
52044;DHT22;38053;53.100;6.078;2023-04-01T00:33:05;9.40;99.90
52044;DHT22;38053;53.100;6.078;2023-04-01T00:35:32;9.50;99.90
52044;DHT22;38053;53.100;6.078;2023-04-01T00:38:00;9.40;99.90
52044;DHT22;38053;53.100;6.078;2023-04-01T00:42:55;9.50;99.90
52044;DHT22;38053;53.100;6.078;2023-04-01T00:45:31;9.50;99.90
52044;DHT22;38053;53.100;6.078;2023-04-01T00:48:01;9.50;99.90
52044;DHT22;38053;53.100;6.078;2023-04-01T00:50:30;9.50;99.90
52044;DHT22;38053;53.100;6.078;2023-04-01T00:52:58;9.50;99.90
52044;DHT22;38053;53.100;6.078;2023-04-01T00:55:26;9.50;99.90
52044;DHT22;38053;53.100;6.078;2023-04-01T00:57:54;9.50;99.90
52044;DHT22;38053;53.100;6.078;2023-04-01T01:00:22;9.50;99.90
52044;DHT22;38053;53.100;6.078;2023-04-01T01:02:50;9.60;99.90
52044;DHT22;38053;53.100;6.078;2023-04-01T01:05:23;9.50;99.90
52044;DHT22;38053;53.100;6.078;2023-04-01T01:10:43;9.60;99.90
52044;DHT22;38053;53.100;6.078;2023-04-01T01:13:34;9.50;99.90
52044;DHT22;38053;53.100;6.078;2023-04-01T01:16:18;9.60;99.90
52044;DHT22;38053;53.100;6.078;2023-04-01T01:19:25;9.60;99.90
52044;DHT22;38053;53.100;6.078;2023-04-01T01:22:31;9.50;99.90
52044;DHT22;38053;53.100;6.078;2023-04-01T01:25:14;9.60;99.90
52044;DHT22;38053;53.100;6.078;2023-04-01T01:27:48;9.50;99.90
52044;DHT22;38053;53.100;6.078;2023-04-01T01:30:37;9.50;99.90
52044;DHT22;38053;53.100;6.078;2023-04-01T01:33:24;9.50;99.90
52044;DHT22;38053;53.100;6.078;2023-04-01T01:35:54;9.50;99.90
52044;DHT22;38053;53.100;6.078;2023-04-01T01:38:24;9.60;99.90
52044;DHT22;38053;53.100;6.078;2023-04-01T01:40:52;9.50;99.90
52044;DHT22;38053;53.100;6.078;2023-04-01T01:43:24;9.50;99.90
52044;DHT22;38053;53.100;6.078;2023-04-01T01:45:59;9.50;99.90
52044;DHT22;38053;53.100;6.078;2023-04-01T01:48:27;9.60;99.90
52044;DHT22;38053;53.100;6.078;2023-04-01T01:50:54;9.60;99.90
52044;DHT22;38053;53.100;6.078;2023-04-01T01:53:20;9.60;99.90
52044;DHT22;38053;53.100;6.078;2023-04-01T01:55:47;9.60;99.90
52044;DHT22;38053;53.100;6.078;2023-04-01T01:58:20;9.60;99.90
52044;DHT22;38053;53.100;6.078;2023-04-01T02:01:13;9.60;99.90
52044;DHT22;38053;53.100;6.078;2023-04-01T02:03:41;9.60;99.90
52044;DHT22;38053;53.100;6.078;2023-04-01T02:06:12;9.60;99.90
52044;DHT22;38053;53.100;6.078;2023-04-01T02:11:18;9.50;99.90
52044;DHT22;38053;53.100;6.078;2023-04-01T02:16:33;9.50;99.90
52044;DHT22;38053;53.100;6.078;2023-04-01T02:19:02;9.50;99.90
52044;DHT22;38053;53.100;6.078;2023-04-01T02:21:33;9.50;99.90
52044;DHT22;38053;53.100;6.078;2023-04-01T02:24:02;9.50;99.90
52044;DHT22;38053;53.100;6.078;2023-04-01T02:26:31;9.50;99.90
52044;DHT22;38053;53.100;6.078;2023-04-01T02:28:57;9.40;99.90
52044;DHT22;38053;53.100;6.078;2023-04-01T02:31:25;9.50;99.90
52044;DHT22;38053;53.100;6.078;2023-04-01T02:33:52;9.50;99.90
52044;DHT22;38053;53.100;6.078;2023-04-01T02:36:21;9.40;99.90
52044;DHT22;38053;53.100;6.078;2023-04-01T02:38:52;9.40;99.90
52044;DHT22;38053;53.100;6.078;2023-04-01T02:41:21;9.40;99.90
52044;DHT22;38053;53.100;6.078;2023-04-01T02:43:47;9.40;99.90
52044;DHT22;38053;53.100;6.078;2023-04-01T02:46:16;9.30;99.90
52044;DHT22;38053;53.100;6.078;2023-04-01T02:48:44;9.30;99.90
52044;DHT22;38053;53.100;6.078;2023-04-01T02:51:13;9.30;99.90
52044;DHT22;38053;53.100;6.078;2023-04-01T02:53:38;9.30;99.90
52044;DHT22;38053;53.100;6.078;2023-04-01T02:56:04;9.30;99.90
52044;DHT22;38053;53.100;6.078;2023-04-01T02:58:31;9.30;99.90
52044;DHT22;38053;53.100;6.078;2023-04-01T03:00:57;9.40;99.90
52044;DHT22;38053;53.100;6.078;2023-04-01T03:03:22;9.40;99.90
52044;DHT22;38053;53.100;6.078;2023-04-01T03:05:48;9.40;99.90
52044;DHT22;38053;53.100;6.078;2023-04-01T03:08:14;9.40;99.90
52044;DHT22;38053;53.100;6.078;2023-04-01T03:10:40;9.40;99.90
52044;DHT22;38053;53.100;6.078;2023-04-01T03:13:06;9.40;99.90
52044;DHT22;38053;53.100;6.078;2023-04-01T03:15:34;9.40;99.90
52044;DHT22;38053;53.100;6.078;2023-04-01T03:18:00;9.40;99.90
52044;DHT22;38053;53.100;6.078;2023-04-01T03:20:26;9.40;99.90
52044;DHT22;38053;53.100;6.078;2023-04-01T03:22:52;9.40;99.90
52044;DHT22;38053;53.100;6.078;2023-04-01T03:25:18;9.40;99.90
52044;DHT22;38053;53.100;6.078;2023-04-01T03:27:43;9.40;99.90
52044;DHT22;38053;53.100;6.078;2023-04-01T03:30:12;9.40;99.90
52044;DHT22;38053;53.100;6.078;2023-04-01T03:32:38;9.50;99.90
52044;DHT22;38053;53.100;6.078;2023-04-01T03:35:03;9.50;99.90
52044;DHT22;38053;53.100;6.078;2023-04-01T03:37:33;9.40;99.90
52044;DHT22;38053;53.100;6.078;2023-04-01T03:39:59;9.40;99.90
52044;DHT22;38053;53.100;6.078;2023-04-01T03:42:24;9.50;99.90
52044;DHT22;38053;53.100;6.078;2023-04-01T03:44:50;9.50;99.90
52044;DHT22;38053;53.100;6.078;2023-04-01T03:47:16;9.50;99.90
52044;DHT22;38053;53.100;6.078;2023-04-01T03:49:42;9.50;99.90
52044;DHT22;38053;53.100;6.078;2023-04-01T03:52:10;9.50;99.90
52044;DHT22;38053;53.100;6.078;2023-04-01T03:54:36;9.40;99.90
52044;DHT22;38053;53.100;6.078;2023-04-01T03:57:02;9.40;99.90
52044;DHT22;38053;53.100;6.078;2023-04-01T03:59:28;9.40;99.90
52044;DHT22;38053;53.100;6.078;2023-04-01T04:01:53;9.40;99.90
52044;DHT22;38053;53.100;6.078;2023-04-01T04:04:22;9.40;99.90
52044;DHT22;38053;53.100;6.078;2023-04-01T04:06:49;9.50;99.90
52044;DHT22;38053;53.100;6.078;2023-04-01T04:09:16;9.40;99.90
52044;DHT22;38053;53.100;6.078;2023-04-01T04:11:45;9.50;99.90
52044;DHT22;38053;53.100;6.078;2023-04-01T04:14:15;9.40;99.90
52044;DHT22;38053;53.100;6.078;2023-04-01T04:16:42;9.40;99.90
52044;DHT22;38053;53.100;6.078;2023-04-01T04:19:08;9.40;99.90
52044;DHT22;38053;53.100;6.078;2023-04-01T04:21:34;9.50;99.90
52044;DHT22;38053;53.100;6.078;2023-04-01T04:24:00;9.50;99.90
52044;DHT22;38053;53.100;6.078;2023-04-01T04:26:26;9.40;99.90
52044;DHT22;38053;53.100;6.078;2023-04-01T04:28:54;9.50;99.90
52044;DHT22;38053;53.100;6.078;2023-04-01T04:31:24;9.50;99.90
52044;DHT22;38053;53.100;6.078;2023-04-01T04:34:00;9.40;99.90
52044;DHT22;38053;53.100;6.078;2023-04-01T04:36:27;9.50;99.90
52044;DHT22;38053;53.100;6.078;2023-04-01T04:38:56;9.50;99.90
52044;DHT22;38053;53.100;6.078;2023-04-01T04:41:28;9.50;99.90
52044;DHT22;38053;53.100;6.078;2023-04-01T04:43:56;9.50;99.90
52044;DHT22;38053;53.100;6.078;2023-04-01T04:46:22;9.40;99.90
52044;DHT22;38053;53.100;6.078;2023-04-01T04:48:48;9.50;99.90
52044;DHT22;38053;53.100;6.078;2023-04-01T04:51:17;9.40;99.90
52044;DHT22;38053;53.100;6.078;2023-04-01T04:53:43;9.50;99.90
52044;DHT22;38053;53.100;6.078;2023-04-01T04:56:11;9.50;99.90
52044;DHT22;38053;53.100;6.078;2023-04-01T04:58:38;9.40;99.90
52044;DHT22;38053;53.100;6.078;2023-04-01T05:01:10;9.50;99.90
52044;DHT22;38053;53.100;6.078;2023-04-01T05:03:37;9.50;99.90
52044;DHT22;38053;53.100;6.078;2023-04-01T05:06:04;9.50;99.90
52044;DHT22;38053;53.100;6.078;2023-04-01T05:08:30;9.50;99.90
52044;DHT22;38053;53.100;6.078;2023-04-01T05:10:56;9.40;99.90
52044;DHT22;38053;53.100;6.078;2023-04-01T05:13:23;9.40;99.90
52044;DHT22;38053;53.100;6.078;2023-04-01T05:15:50;9.40;99.90
52044;DHT22;38053;53.100;6.078;2023-04-01T05:18:17;9.40;99.90
52044;DHT22;38053;53.100;6.078;2023-04-01T05:20:50;9.40;99.90
52044;DHT22;38053;53.100;6.078;2023-04-01T05:23:17;9.40;99.90
52044;DHT22;38053;53.100;6.078;2023-04-01T05:25:43;9.40;99.90
52044;DHT22;38053;53.100;6.078;2023-04-01T05:28:11;9.40;99.90
52044;DHT22;38053;53.100;6.078;2023-04-01T05:30:40;9.40;99.90
52044;DHT22;38053;53.100;6.078;2023-04-01T05:33:07;9.40;99.90
52044;DHT22;38053;53.100;6.078;2023-04-01T05:35:32;9.40;99.90
52044;DHT22;38053;53.100;6.078;2023-04-01T05:37:58;9.40;99.90
52044;DHT22;38053;53.100;6.078;2023-04-01T05:40:24;9.40;99.90
52044;DHT22;38053;53.100;6.078;2023-04-01T05:42:50;9.40;99.90
52044;DHT22;38053;53.100;6.078;2023-04-01T05:45:16;9.50;99.90
52044;DHT22;38053;53.100;6.078;2023-04-01T05:47:41;9.40;99.90
52044;DHT22;38053;53.100;6.078;2023-04-01T05:50:10;9.50;99.90
52044;DHT22;38053;53.100;6.078;2023-04-01T05:52:37;9.40;99.90
52044;DHT22;38053;53.100;6.078;2023-04-01T05:55:04;9.40;99.90
52044;DHT22;38053;53.100;6.078;2023-04-01T05:57:30;9.50;99.90
52044;DHT22;38053;53.100;6.078;2023-04-01T05:59:56;9.40;99.90
52044;DHT22;38053;53.100;6.078;2023-04-01T06:02:21;9.40;99.90
52044;DHT22;38053;53.100;6.078;2023-04-01T06:04:47;9.50;99.90
52044;DHT22;38053;53.100;6.078;2023-04-01T06:07:16;9.50;99.90
52044;DHT22;38053;53.100;6.078;2023-04-01T06:09:44;9.40;99.90
52044;DHT22;38053;53.100;6.078;2023-04-01T06:26:21;9.50;99.90
52044;DHT22;38053;53.100;6.078;2023-04-01T06:28:59;9.50;99.90
52044;DHT22;38053;53.100;6.078;2023-04-01T06:32:01;9.50;99.90
52044;DHT22;38053;53.100;6.078;2023-04-01T06:40:21;9.50;99.90
52044;DHT22;38053;53.100;6.078;2023-04-01T06:45:58;9.60;99.90
52044;DHT22;38053;53.100;6.078;2023-04-01T06:48:51;9.60;99.90
52044;DHT22;38053;53.100;6.078;2023-04-01T06:56:28;9.70;99.90
52044;DHT22;38053;53.100;6.078;2023-04-01T07:01:42;9.70;99.90
52044;DHT22;38053;53.100;6.078;2023-04-01T07:04:34;9.70;99.90
52044;DHT22;38053;53.100;6.078;2023-04-01T07:07:05;9.80;99.90
52044;DHT22;38053;53.100;6.078;2023-04-01T07:09:39;9.80;99.90
52044;DHT22;38053;53.100;6.078;2023-04-01T07:14:58;9.80;99.90
52044;DHT22;38053;53.100;6.078;2023-04-01T07:17:32;9.80;99.90
52044;DHT22;38053;53.100;6.078;2023-04-01T07:20:10;9.80;99.90
52044;DHT22;38053;53.100;6.078;2023-04-01T07:22:43;9.70;99.90
52044;DHT22;38053;53.100;6.078;2023-04-01T07:25:18;9.80;99.90
52044;DHT22;38053;53.100;6.078;2023-04-01T07:27:46;9.80;99.90
52044;DHT22;38053;53.100;6.078;2023-04-01T07:30:20;9.70;99.90
52044;DHT22;38053;53.100;6.078;2023-04-01T07:36:06;9.70;99.90
52044;DHT22;38053;53.100;6.078;2023-04-01T07:38:45;9.70;99.90
52044;DHT22;38053;53.100;6.078;2023-04-01T07:49:53;9.90;99.90
52044;DHT22;38053;53.100;6.078;2023-04-01T08:03:43;10.30;99.90
52044;DHT22;38053;53.100;6.078;2023-04-01T08:06:37;10.40;99.90
52044;DHT22;38053;53.100;6.078;2023-04-01T08:15:23;10.60;99.90
52044;DHT22;38053;53.100;6.078;2023-04-01T08:23:21;10.70;99.90
52044;DHT22;38053;53.100;6.078;2023-04-01T08:28:44;10.90;99.90
52044;DHT22;38053;53.100;6.078;2023-04-01T08:31:25;10.90;99.90
52044;DHT22;38053;53.100;6.078;2023-04-01T08:33:53;10.90;99.90
52044;DHT22;38053;53.100;6.078;2023-04-01T08:36:35;11.00;99.90
52044;DHT22;38053;53.100;6.078;2023-04-01T08:39:13;11.00;99.90
52044;DHT22;38053;53.100;6.078;2023-04-01T08:41:58;11.10;99.90
52044;DHT22;38053;53.100;6.078;2023-04-01T08:45:04;11.10;99.90
52044;DHT22;38053;53.100;6.078;2023-04-01T08:59:13;11.20;99.90
52044;DHT22;38053;53.100;6.078;2023-04-01T09:10:41;11.40;99.90
52044;DHT22;38053;53.100;6.078;2023-04-01T09:16:24;11.40;99.90
52044;DHT22;38053;53.100;6.078;2023-04-01T09:38:55;11.10;99.90
52044;DHT22;38053;53.100;6.078;2023-04-01T09:40:57;11.00;99.90
52044;DHT22;38053;53.100;6.078;2023-04-01T09:43:47;10.80;99.90
52044;DHT22;38053;53.100;6.078;2023-04-01T10:29:00;10.50;99.90
52044;DHT22;38053;53.100;6.078;2023-04-01T10:35:04;10.50;99.90
52044;DHT22;38053;53.100;6.078;2023-04-01T10:37:46;10.50;99.90
52044;DHT22;38053;53.100;6.078;2023-04-01T10:46:21;10.40;99.90
52044;DHT22;38053;53.100;6.078;2023-04-01T10:54:45;10.30;99.90
52044;DHT22;38053;53.100;6.078;2023-04-01T10:57:27;10.30;99.90
52044;DHT22;38053;53.100;6.078;2023-04-01T11:00:06;10.40;99.90
52044;DHT22;38053;53.100;6.078;2023-04-01T11:31:47;10.30;99.90
52044;DHT22;38053;53.100;6.078;2023-04-01T11:34:32;10.30;99.90
52044;DHT22;38053;53.100;6.078;2023-04-01T11:39:50;10.50;99.90
52044;DHT22;38053;53.100;6.078;2023-04-01T11:42:47;10.40;99.90
52044;DHT22;38053;53.100;6.078;2023-04-01T11:45:13;10.50;99.90
52044;DHT22;38053;53.100;6.078;2023-04-01T12:02:09;10.80;99.90
52044;DHT22;38053;53.100;6.078;2023-04-01T12:07:11;10.80;99.90
52044;DHT22;38053;53.100;6.078;2023-04-01T12:10:05;10.90;99.90
52044;DHT22;38053;53.100;6.078;2023-04-01T12:13:01;10.90;99.90
52044;DHT22;38053;53.100;6.078;2023-04-01T12:15:36;10.80;99.90
52044;DHT22;38053;53.100;6.078;2023-04-01T12:20:50;10.80;99.90
52044;DHT22;38053;53.100;6.078;2023-04-01T12:37:51;10.40;99.90
52044;DHT22;38053;53.100;6.078;2023-04-01T12:45:23;10.20;99.90
52044;DHT22;38053;53.100;6.078;2023-04-01T12:48:46;10.30;99.90
52044;DHT22;38053;53.100;6.078;2023-04-01T12:57:06;10.20;99.90
52044;DHT22;38053;53.100;6.078;2023-04-01T13:09:13;10.30;99.90
52044;DHT22;38053;53.100;6.078;2023-04-01T13:12:02;10.20;99.90
52044;DHT22;38053;53.100;6.078;2023-04-01T13:15:16;10.30;99.90
52044;DHT22;38053;53.100;6.078;2023-04-01T13:20:43;10.30;99.90
52044;DHT22;38053;53.100;6.078;2023-04-01T13:26:22;10.20;99.90
52044;DHT22;38053;53.100;6.078;2023-04-01T13:29:04;10.20;99.90
52044;DHT22;38053;53.100;6.078;2023-04-01T13:37:42;10.40;99.90
52044;DHT22;38053;53.100;6.078;2023-04-01T13:48:40;10.30;99.90
52044;DHT22;38053;53.100;6.078;2023-04-01T13:54:09;10.30;99.90
52044;DHT22;38053;53.100;6.078;2023-04-01T14:20:37;10.00;99.90
52044;DHT22;38053;53.100;6.078;2023-04-01T14:29:18;9.90;99.90
52044;DHT22;38053;53.100;6.078;2023-04-01T14:37:27;9.70;99.90
52044;DHT22;38053;53.100;6.078;2023-04-01T14:43:14;9.80;99.90
52044;DHT22;38053;53.100;6.078;2023-04-01T14:46:34;9.80;99.90
52044;DHT22;38053;53.100;6.078;2023-04-01T14:48:57;9.70;99.90
52044;DHT22;38053;53.100;6.078;2023-04-01T14:51:31;9.70;99.90
52044;DHT22;38053;53.100;6.078;2023-04-01T14:54:16;9.80;99.90
52044;DHT22;38053;53.100;6.078;2023-04-01T14:56:50;9.70;99.90
52044;DHT22;38053;53.100;6.078;2023-04-01T15:05:16;9.40;99.90
52044;DHT22;38053;53.100;6.078;2023-04-01T15:16:39;9.20;99.90
52044;DHT22;38053;53.100;6.078;2023-04-01T15:19:36;9.10;99.90
52044;DHT22;38053;53.100;6.078;2023-04-01T15:31:18;8.90;99.90
52044;DHT22;38053;53.100;6.078;2023-04-01T15:33:49;8.90;99.90
52044;DHT22;38053;53.100;6.078;2023-04-01T15:36:27;8.80;99.90
52044;DHT22;38053;53.100;6.078;2023-04-01T15:50:22;8.70;99.90
52044;DHT22;38053;53.100;6.078;2023-04-01T15:58:54;8.50;99.90
52044;DHT22;38053;53.100;6.078;2023-04-01T16:04:22;8.30;99.90
52044;DHT22;38053;53.100;6.078;2023-04-01T16:12:59;8.30;99.90
52044;DHT22;38053;53.100;6.078;2023-04-01T16:21:08;8.10;99.90
52044;DHT22;38053;53.100;6.078;2023-04-01T16:24:32;8.10;99.90
52044;DHT22;38053;53.100;6.078;2023-04-01T16:26:47;8.10;99.90
52044;DHT22;38053;53.100;6.078;2023-04-01T16:29:30;8.10;99.90
52044;DHT22;38053;53.100;6.078;2023-04-01T16:32:53;8.00;99.90
52044;DHT22;38053;53.100;6.078;2023-04-01T16:51:34;7.80;99.90
52044;DHT22;38053;53.100;6.078;2023-04-01T16:54:05;7.80;99.90
52044;DHT22;38053;53.100;6.078;2023-04-01T16:56:56;7.80;99.90
52044;DHT22;38053;53.100;6.078;2023-04-01T16:59:34;7.70;99.90
52044;DHT22;38053;53.100;6.078;2023-04-01T17:02:02;7.70;99.90
52044;DHT22;38053;53.100;6.078;2023-04-01T17:07:58;7.60;99.90
52044;DHT22;38053;53.100;6.078;2023-04-01T17:18:54;7.40;99.90
52044;DHT22;38053;53.100;6.078;2023-04-01T17:33:16;7.30;99.90
52044;DHT22;38053;53.100;6.078;2023-04-01T17:36:04;7.20;99.90
52044;DHT22;38053;53.100;6.078;2023-04-01T17:41:36;7.10;99.90
52044;DHT22;38053;53.100;6.078;2023-04-01T18:08:48;6.90;99.90
52044;DHT22;38053;53.100;6.078;2023-04-01T18:14:42;6.90;99.90
52044;DHT22;38053;53.100;6.078;2023-04-01T18:17:25;6.90;99.90
52044;DHT22;38053;53.100;6.078;2023-04-01T18:19:58;6.80;99.90
52044;DHT22;38053;53.100;6.078;2023-04-01T18:22:36;6.80;99.90
52044;DHT22;38053;53.100;6.078;2023-04-01T18:25:38;6.80;99.90
52044;DHT22;38053;53.100;6.078;2023-04-01T18:30:35;6.70;99.90
52044;DHT22;38053;53.100;6.078;2023-04-01T18:36:09;6.70;99.90
52044;DHT22;38053;53.100;6.078;2023-04-01T18:38:44;6.60;99.90
52044;DHT22;38053;53.100;6.078;2023-04-01T18:44:01;6.60;99.90
52044;DHT22;38053;53.100;6.078;2023-04-01T18:46:41;6.60;99.90
52044;DHT22;38053;53.100;6.078;2023-04-01T18:57:52;6.60;99.90
52044;DHT22;38053;53.100;6.078;2023-04-01T19:00:39;6.60;99.90
52044;DHT22;38053;53.100;6.078;2023-04-01T19:05:48;6.50;99.90
52044;DHT22;38053;53.100;6.078;2023-04-01T19:22:13;6.40;99.90
52044;DHT22;38053;53.100;6.078;2023-04-01T19:24:59;6.40;99.90
52044;DHT22;38053;53.100;6.078;2023-04-01T19:27:46;6.40;99.90
52044;DHT22;38053;53.100;6.078;2023-04-01T19:32:52;6.30;99.90
52044;DHT22;38053;53.100;6.078;2023-04-01T19:35:35;6.40;99.90
52044;DHT22;38053;53.100;6.078;2023-04-01T19:38:16;6.40;99.90
52044;DHT22;38053;53.100;6.078;2023-04-01T19:41:16;6.30;99.90
52044;DHT22;38053;53.100;6.078;2023-04-01T19:46:33;6.20;99.90
52044;DHT22;38053;53.100;6.078;2023-04-01T19:49:29;6.20;99.90
52044;DHT22;38053;53.100;6.078;2023-04-01T19:52:26;6.20;99.90
52044;DHT22;38053;53.100;6.078;2023-04-01T19:57:47;6.10;99.90
52044;DHT22;38053;53.100;6.078;2023-04-01T20:05:47;6.10;99.90
52044;DHT22;38053;53.100;6.078;2023-04-01T20:08:32;6.10;99.90
52044;DHT22;38053;53.100;6.078;2023-04-01T20:11:23;6.00;99.90
52044;DHT22;38053;53.100;6.078;2023-04-01T20:14:09;6.00;99.90
52044;DHT22;38053;53.100;6.078;2023-04-01T20:25:24;5.90;99.90
52044;DHT22;38053;53.100;6.078;2023-04-01T20:40:53;5.80;99.90
52044;DHT22;38053;53.100;6.078;2023-04-01T21:12:24;5.60;99.90
52044;DHT22;38053;53.100;6.078;2023-04-01T21:17:33;5.50;99.90
52044;DHT22;38053;53.100;6.078;2023-04-01T21:23:20;5.50;99.90
52044;DHT22;38053;53.100;6.078;2023-04-01T21:37:42;5.50;99.90
52044;DHT22;38053;53.100;6.078;2023-04-01T21:39:47;5.50;99.90
52044;DHT22;38053;53.100;6.078;2023-04-01T21:43:00;5.50;99.90
52044;DHT22;38053;53.100;6.078;2023-04-01T21:46:02;5.50;99.90
52044;DHT22;38053;53.100;6.078;2023-04-01T21:49:27;5.50;99.90
52044;DHT22;38053;53.100;6.078;2023-04-01T22:20:37;5.30;99.90
52044;DHT22;38053;53.100;6.078;2023-04-01T22:25:48;5.30;99.90
52044;DHT22;38053;53.100;6.078;2023-04-01T22:28:21;5.30;99.90
52044;DHT22;38053;53.100;6.078;2023-04-01T22:30:59;5.30;99.90
52044;DHT22;38053;53.100;6.078;2023-04-01T22:50:27;5.10;99.90
52044;DHT22;38053;53.100;6.078;2023-04-01T22:53:09;5.10;99.90
52044;DHT22;38053;53.100;6.078;2023-04-01T22:55:42;5.10;99.90
52044;DHT22;38053;53.100;6.078;2023-04-01T22:58:17;5.10;99.90
52044;DHT22;38053;53.100;6.078;2023-04-01T23:00:55;5.10;99.90
52044;DHT22;38053;53.100;6.078;2023-04-01T23:03:24;5.00;99.90
52044;DHT22;38053;53.100;6.078;2023-04-01T23:05:56;5.00;99.90
52044;DHT22;38053;53.100;6.078;2023-04-01T23:13:47;5.00;99.90
52044;DHT22;38053;53.100;6.078;2023-04-01T23:16:28;5.00;99.90
52044;DHT22;38053;53.100;6.078;2023-04-01T23:19:11;4.90;99.90
52044;DHT22;38053;53.100;6.078;2023-04-01T23:33:26;4.70;99.90
52044;DHT22;38053;53.100;6.078;2023-04-01T23:35:56;4.60;99.90
52044;DHT22;38053;53.100;6.078;2023-04-01T23:38:32;4.50;99.90
52044;DHT22;38053;53.100;6.078;2023-04-01T23:40:58;4.50;99.90
52044;DHT22;38053;53.100;6.078;2023-04-01T23:43:30;4.50;99.90
52044;DHT22;38053;53.100;6.078;2023-04-01T23:46:00;4.50;99.90
52044;DHT22;38053;53.100;6.078;2023-04-01T23:48:44;4.40;99.90
52044;DHT22;38053;53.100;6.078;2023-04-01T23:51:22;4.40;99.90
52044;DHT22;38053;53.100;6.078;2023-04-01T23:54:01;4.40;99.90
52044;DHT22;38053;53.100;6.078;2023-04-01T23:56:48;4.40;99.90
52044;DHT22;38053;53.100;6.078;2023-04-01T23:59:18;4.30;99.90
